Time;durP1;ratioP1;P1;durP2;ratioP2;P2;SDS_P1;SDS_P2;PMS_P1;PMS_P2;Temp;Humidity;BMP_temperature;BMP_pressure;BME280_temperature;BME280_humidity;BME280_pressure;Samples;Min_cycle;Max_cycle;Signal;HPM_P1;HPM_P2
2024/01/09 00:00:29;;;;;;;5.23;1.87;;;-3.30;99.90;;;;;;4975718;28;20041;-75
2024/01/09 00:02:55;;;;;;;7.10;1.93;;;-3.30;99.90;;;;;;4959998;28;20042;-81
2024/01/09 00:05:22;;;;;;;5.83;2.20;;;-3.30;99.90;;;;;;4976458;28;20414;-82
2024/01/09 00:07:48;;;;;;;4.90;2.00;;;-3.40;99.90;;;;;;5008369;28;20022;-83
2024/01/09 00:10:14;;;;;;;5.47;2.20;;;-3.40;99.90;;;;;;4978760;28;20026;-79
2024/01/09 00:12:42;;;;;;;3.63;1.93;;;-3.40;99.90;;;;;;5016360;28;20042;-73
2024/01/09 00:15:10;;;;;;;5.70;2.33;;;-3.40;99.90;;;;;;4981849;28;20065;-81
2024/01/09 00:17:36;;;;;;;5.27;2.20;;;-3.40;99.90;;;;;;5008990;28;20047;-83
2024/01/09 00:20:02;;;;;;;5.57;1.93;;;-3.40;99.90;;;;;;4973932;28;20042;-74
2024/01/09 00:22:29;;;;;;;3.43;1.83;;;-3.40;99.90;;;;;;4975047;28;20661;-77
2024/01/09 00:24:55;;;;;;;4.20;1.77;;;-3.40;99.90;;;;;;4993261;28;20610;-80
2024/01/09 00:27:21;;;;;;;5.70;1.97;;;-3.40;99.90;;;;;;4976338;28;20042;-83
2024/01/09 00:29:48;;;;;;;5.17;1.70;;;-3.40;99.90;;;;;;4992833;28;20038;-83
2024/01/09 00:32:14;;;;;;;3.80;1.70;;;-3.40;99.90;;;;;;4975598;28;20030;-76
2024/01/09 00:34:42;;;;;;;3.50;1.53;;;-3.50;99.90;;;;;;4993143;28;20038;-82
2024/01/09 00:37:08;;;;;;;4.60;1.80;;;-3.50;99.90;;;;;;4990711;28;20037;-82
2024/01/09 00:39:35;;;;;;;6.00;1.50;;;-3.50;99.90;;;;;;4975731;28;20039;-80
2024/01/09 00:42:01;;;;;;;4.63;1.77;;;-3.50;99.90;;;;;;4992081;28;20393;-79
2024/01/09 00:44:28;;;;;;;5.57;1.97;;;-3.50;99.90;;;;;;4976737;28;20038;-82
2024/01/09 00:46:54;;;;;;;3.87;1.93;;;-3.50;99.90;;;;;;4963571;28;20038;-85
2024/01/09 00:49:20;;;;;;;3.47;1.63;;;-3.50;99.90;;;;;;4980363;28;20034;-85
2024/01/09 00:51:46;;;;;;;4.13;1.80;;;-3.50;99.90;;;;;;4980144;28;20691;-85
2024/01/09 00:54:13;;;;;;;4.27;1.70;;;-3.50;99.90;;;;;;5012004;28;20042;-77
2024/01/09 00:56:41;;;;;;;4.77;1.87;;;-3.50;99.90;;;;;;4964015;28;20045;-85
2024/01/09 00:59:08;;;;;;;3.63;1.87;;;-3.50;99.90;;;;;;4994515;28;20038;-85
2024/01/09 01:01:34;;;;;;;4.10;1.77;;;-3.50;99.90;;;;;;4980311;28;20034;-82
2024/01/09 01:04:00;;;;;;;4.37;1.57;;;-3.60;99.90;;;;;;4963468;28;20038;-84
2024/01/09 01:06:27;;;;;;;4.00;1.70;;;-3.60;99.90;;;;;;4947790;28;20029;-85
2024/01/09 01:08:53;;;;;;;3.97;1.50;;;-3.60;99.90;;;;;;4996755;28;20041;-80
2024/01/09 01:11:19;;;;;;;4.97;1.37;;;-3.60;99.90;;;;;;4979221;28;20045;-85
2024/01/09 01:13:46;;;;;;;4.37;1.77;;;-3.60;99.90;;;;;;4981463;28;20042;-75
2024/01/09 01:16:13;;;;;;;4.77;1.93;;;-3.60;99.90;;;;;;4980558;28;20038;-80
2024/01/09 01:18:41;;;;;;;3.93;2.00;;;-3.60;99.90;;;;;;4979010;28;20034;-83
2024/01/09 01:21:07;;;;;;;4.60;1.73;;;-3.60;99.90;;;;;;4981115;28;20410;-81
2024/01/09 01:23:34;;;;;;;4.40;1.70;;;-3.60;99.90;;;;;;4995031;28;20088;-81
2024/01/09 01:26:00;;;;;;;5.70;1.73;;;-3.70;99.90;;;;;;4994805;28;20405;-86
2024/01/09 01:28:26;;;;;;;4.73;2.23;;;-3.60;99.90;;;;;;4995856;28;20042;-85
2024/01/09 01:30:53;;;;;;;4.50;2.00;;;-3.70;99.90;;;;;;4979465;28;20523;-79
2024/01/09 01:33:19;;;;;;;4.97;1.87;;;-3.70;99.90;;;;;;5011568;28;20493;-77
2024/01/09 01:35:46;;;;;;;5.40;1.97;;;-3.70;99.90;;;;;;4994347;28;20042;-81
2024/01/09 01:38:12;;;;;;;4.07;1.67;;;-3.70;99.90;;;;;;4963129;28;20045;-83
2024/01/09 01:40:40;;;;;;;5.13;2.40;;;-3.70;99.90;;;;;;5009705;28;20054;-83
2024/01/09 01:43:06;;;;;;;6.70;1.90;;;-3.70;99.90;;;;;;4963265;28;20052;-83
2024/01/09 01:45:32;;;;;;;6.43;2.07;;;-3.70;99.90;;;;;;4978855;28;20049;-87
2024/01/09 01:48:00;;;;;;;5.57;1.93;;;-3.80;99.90;;;;;;4980174;28;20034;-85
2024/01/09 01:50:28;;;;;;;6.40;1.83;;;-3.80;99.90;;;;;;5010950;28;20042;-82
2024/01/09 01:52:55;;;;;;;6.93;2.30;;;-3.80;99.90;;;;;;4962927;28;20038;-87
2024/01/09 01:55:24;;;;;;;3.83;1.90;;;-3.80;99.90;;;;;;4963045;28;20038;-84
2024/01/09 01:57:54;;;;;;;5.30;2.20;;;-3.80;99.90;;;;;;4994171;28;20519;-83
2024/01/09 02:00:21;;;;;;;4.80;1.73;;;-3.80;99.90;;;;;;5010358;28;20377;-83
2024/01/09 02:02:52;;;;;;;6.97;2.43;;;-3.80;99.90;;;;;;4994719;28;20034;-83
2024/01/09 02:05:19;;;;;;;4.93;1.90;;;-3.80;99.90;;;;;;4963665;28;20061;-86
2024/01/09 02:07:46;;;;;;;6.33;2.10;;;-3.80;99.90;;;;;;4999671;28;20041;-89
2024/01/09 02:10:14;;;;;;;5.13;1.60;;;-3.80;99.90;;;;;;4996165;28;20042;-82
2024/01/09 02:12:41;;;;;;;4.57;2.10;;;-3.90;99.90;;;;;;4992806;28;20591;-82
2024/01/09 02:15:09;;;;;;;6.27;2.07;;;-3.90;99.90;;;;;;4979748;28;20057;-89
2024/01/09 02:17:36;;;;;;;4.57;1.80;;;-3.90;99.90;;;;;;5011439;28;20030;-84
2024/01/09 02:20:05;;;;;;;4.23;1.77;;;-3.90;99.90;;;;;;4980912;28;20037;-78
2024/01/09 02:22:31;;;;;;;6.93;2.33;;;-3.90;99.90;;;;;;4961942;28;20045;-84
2024/01/09 02:24:57;;;;;;;4.53;1.87;;;-3.90;99.90;;;;;;4978155;28;20493;-83
2024/01/09 02:27:47;;;;;;;6.07;2.00;;;-3.90;99.90;;;;;;5010224;28;20759;-84
2024/01/09 02:30:13;;;;;;;6.60;1.83;;;-4.00;99.90;;;;;;5010739;28;20026;-81
2024/01/09 02:32:39;;;;;;;4.07;1.73;;;-4.00;99.90;;;;;;5011835;28;20034;-86
2024/01/09 02:35:06;;;;;;;4.37;1.70;;;-4.10;99.90;;;;;;4980151;28;20524;-74
2024/01/09 02:37:32;;;;;;;3.80;2.20;;;-4.00;99.90;;;;;;4979490;28;20044;-89
2024/01/09 02:40:03;;;;;;;4.67;2.00;;;-4.00;99.90;;;;;;4980038;28;20517;-86
2024/01/09 02:42:29;;;;;;;4.97;2.17;;;-4.10;99.90;;;;;;4995521;28;20049;-86
2024/01/09 02:44:58;;;;;;;5.13;2.30;;;-4.10;99.90;;;;;;4979986;28;20049;-87
2024/01/09 02:47:25;;;;;;;4.23;2.43;;;-4.10;99.90;;;;;;5011075;28;20030;-83
2024/01/09 02:49:51;;;;;;;5.10;1.80;;;-4.00;99.90;;;;;;4994745;28;20059;-85
2024/01/09 02:52:18;;;;;;;4.87;2.43;;;-4.10;99.90;;;;;;5010137;28;20026;-85
2024/01/09 02:54:45;;;;;;;5.63;1.90;;;-4.00;99.90;;;;;;4961134;28;20042;-75
2024/01/09 02:57:12;;;;;;;5.47;2.90;;;-4.10;99.90;;;;;;4979104;28;20348;-84
2024/01/09 02:59:39;;;;;;;4.57;2.23;;;-4.10;99.90;;;;;;4960518;28;20029;-84
2024/01/09 03:02:05;;;;;;;6.77;2.70;;;-4.10;99.90;;;;;;4977153;28;20398;-85
2024/01/09 03:04:32;;;;;;;4.40;2.20;;;-4.10;99.90;;;;;;4993773;28;20409;-81
2024/01/09 03:07:00;;;;;;;5.33;2.07;;;-4.10;99.90;;;;;;4976857;28;20031;-82
2024/01/09 03:09:26;;;;;;;5.60;2.50;;;-4.10;99.90;;;;;;4975579;28;20484;-82
2024/01/09 03:11:53;;;;;;;4.07;2.20;;;-4.10;99.90;;;;;;4962066;28;20038;-75
2024/01/09 03:14:19;;;;;;;5.53;2.00;;;-4.10;99.90;;;;;;4960164;28;20053;-80
2024/01/09 03:16:49;;;;;;;6.10;2.20;;;-4.10;99.90;;;;;;4977424;28;20034;-85
2024/01/09 03:19:16;;;;;;;5.20;2.43;;;-4.10;99.90;;;;;;4977166;28;20496;-75
2024/01/09 03:21:42;;;;;;;5.40;2.30;;;-4.10;99.90;;;;;;4977547;28;20472;-84
2024/01/09 03:24:09;;;;;;;5.97;2.17;;;-4.10;99.90;;;;;;4980587;28;20045;-85
2024/01/09 03:26:35;;;;;;;6.00;2.27;;;-4.10;99.90;;;;;;5010087;28;20043;-82
2024/01/09 03:29:04;;;;;;;4.70;2.23;;;-4.20;99.90;;;;;;4961846;28;20450;-78
2024/01/09 03:31:31;;;;;;;5.23;2.20;;;-4.20;99.90;;;;;;4979622;28;20033;-85
2024/01/09 03:33:58;;;;;;;4.03;2.20;;;-4.20;99.90;;;;;;4948350;28;20038;-83
2024/01/09 03:36:24;;;;;;;7.67;2.60;;;-4.20;99.90;;;;;;4963141;28;20489;-80
2024/01/09 03:38:52;;;;;;;4.80;2.27;;;-4.20;99.90;;;;;;4964511;28;20477;-78
2024/01/09 03:41:18;;;;;;;5.67;2.27;;;-4.20;99.90;;;;;;4961994;28;20045;-74
2024/01/09 03:43:45;;;;;;;8.83;2.60;;;-4.20;99.90;;;;;;4994628;28;20038;-85
2024/01/09 03:46:11;;;;;;;5.17;2.83;;;-4.20;99.90;;;;;;4994182;28;20038;-86
2024/01/09 03:48:37;;;;;;;6.53;2.73;;;-4.30;99.90;;;;;;4977554;28;20045;-84
2024/01/09 03:51:05;;;;;;;5.47;2.47;;;-4.30;99.90;;;;;;4976572;28;20038;-84
2024/01/09 03:53:31;;;;;;;5.63;2.60;;;-4.30;99.90;;;;;;4976675;28;20382;-81
2024/01/09 03:55:57;;;;;;;7.17;2.87;;;-4.30;99.90;;;;;;4977507;28;20050;-83
2024/01/09 03:58:24;;;;;;;7.90;2.80;;;-4.30;99.90;;;;;;4978366;28;20049;-82
2024/01/09 04:00:50;;;;;;;7.10;2.60;;;-4.30;99.90;;;;;;4978267;28;20057;-80
2024/01/09 04:03:16;;;;;;;5.17;2.30;;;-4.30;99.90;;;;;;5011702;28;20581;-80
2024/01/09 04:05:43;;;;;;;5.83;2.97;;;-4.30;99.90;;;;;;4979752;28;20037;-83
2024/01/09 04:08:09;;;;;;;4.67;2.70;;;-4.30;99.90;;;;;;4960115;28;20038;-83
2024/01/09 04:10:36;;;;;;;5.83;2.27;;;-4.40;99.90;;;;;;4962222;28;20519;-79
2024/01/09 04:13:03;;;;;;;7.20;3.10;;;-4.40;99.90;;;;;;5009879;28;20408;-81
2024/01/09 04:15:29;;;;;;;6.33;3.00;;;-4.40;99.90;;;;;;5009543;28;20030;-81
2024/01/09 04:17:55;;;;;;;5.53;2.50;;;-4.40;99.90;;;;;;4960978;28;20061;-84
2024/01/09 04:20:22;;;;;;;6.83;2.70;;;-4.40;99.90;;;;;;4993856;28;20034;-82
2024/01/09 04:22:49;;;;;;;5.83;2.27;;;-4.40;99.90;;;;;;4996999;28;20042;-82
2024/01/09 04:25:15;;;;;;;4.67;1.93;;;-4.40;99.90;;;;;;4980823;28;20035;-78
2024/01/09 04:27:42;;;;;;;5.20;2.27;;;-4.40;99.90;;;;;;4964781;28;20234;-85
2024/01/09 04:30:09;;;;;;;6.17;3.07;;;-4.40;99.90;;;;;;4949188;28;20045;-80
2024/01/09 04:32:35;;;;;;;7.10;3.00;;;-4.40;99.90;;;;;;4980525;28;20064;-83
2024/01/09 04:35:03;;;;;;;8.70;3.37;;;-4.40;99.90;;;;;;4994991;28;20783;-74
2024/01/09 04:37:29;;;;;;;5.33;2.60;;;-4.40;99.90;;;;;;4979926;28;20393;-80
2024/01/09 04:39:56;;;;;;;7.87;3.40;;;-4.40;99.90;;;;;;4963624;28;20031;-79
2024/01/09 04:42:22;;;;;;;7.83;3.20;;;-4.40;99.90;;;;;;4978754;28;20045;-80
2024/01/09 04:44:48;;;;;;;5.97;3.37;;;-4.40;99.90;;;;;;4994845;28;20037;-79
2024/01/09 04:47:18;;;;;;;5.83;2.53;;;-4.40;99.90;;;;;;4979607;28;20590;-80
2024/01/09 04:49:44;;;;;;;7.00;3.03;;;-4.40;99.90;;;;;;4979166;28;20033;-76
2024/01/09 04:52:11;;;;;;;6.03;2.47;;;-4.50;99.90;;;;;;4964527;28;20818;-83
2024/01/09 04:54:38;;;;;;;6.67;3.27;;;-4.50;99.90;;;;;;5012071;28;20053;-84
2024/01/09 04:57:05;;;;;;;6.83;2.83;;;-4.50;99.90;;;;;;4981422;28;20034;-86
2024/01/09 04:59:31;;;;;;;6.47;3.27;;;-4.50;99.90;;;;;;5011630;28;20039;-80
2024/01/09 05:02:01;;;;;;;6.20;2.90;;;-4.50;99.90;;;;;;4962199;28;20245;-84
2024/01/09 05:04:31;;;;;;;6.13;2.67;;;-4.50;99.90;;;;;;4962149;28;20046;-76
2024/01/09 05:06:57;;;;;;;5.93;2.47;;;-4.60;99.90;;;;;;4995498;28;20045;-82
2024/01/09 05:09:24;;;;;;;7.20;3.47;;;-4.60;99.90;;;;;;4963212;28;20054;-74
2024/01/09 05:11:50;;;;;;;6.13;2.73;;;-4.60;99.90;;;;;;4963748;28;20045;-87
2024/01/09 05:14:17;;;;;;;5.23;2.87;;;-4.60;99.90;;;;;;4963909;28;20041;-86
2024/01/09 05:16:43;;;;;;;5.27;3.07;;;-4.60;99.90;;;;;;4981278;28;20488;-84
2024/01/09 05:19:10;;;;;;;5.53;2.60;;;-4.60;99.90;;;;;;4979763;28;20030;-85
2024/01/09 05:21:36;;;;;;;6.87;2.77;;;-4.60;99.90;;;;;;4981263;28;20469;-78
2024/01/09 05:24:03;;;;;;;5.50;2.60;;;-4.70;99.90;;;;;;4963200;28;20076;-84
2024/01/09 05:26:29;;;;;;;6.73;2.87;;;-4.70;99.90;;;;;;4981482;28;20042;-86
2024/01/09 05:28:55;;;;;;;7.07;2.60;;;-4.70;99.90;;;;;;4947066;28;20045;-80
2024/01/09 05:31:23;;;;;;;7.73;3.17;;;-4.70;99.90;;;;;;4979104;28;20034;-76
2024/01/09 05:33:50;;;;;;;5.73;3.27;;;-4.70;99.90;;;;;;4993314;28;20069;-83
2024/01/09 05:36:22;;;;;;;6.87;2.77;;;-4.70;99.90;;;;;;4980190;28;20233;-85
2024/01/09 05:38:52;;;;;;;6.83;3.13;;;-4.70;99.90;;;;;;4976016;28;20045;-79
2024/01/09 05:41:23;;;;;;;8.47;3.27;;;-4.70;99.90;;;;;;5010725;28;21310;-78
2024/01/09 05:43:50;;;;;;;7.13;3.00;;;-4.70;99.90;;;;;;4979439;28;20046;-85
2024/01/09 05:46:16;;;;;;;6.50;3.37;;;-4.70;99.90;;;;;;4978859;28;20037;-78
2024/01/09 05:48:43;;;;;;;7.87;3.57;;;-4.80;99.90;;;;;;4963593;28;20993;-81
2024/01/09 05:51:10;;;;;;;6.63;3.07;;;-4.80;99.90;;;;;;4979009;28;20034;-88
2024/01/09 05:53:37;;;;;;;5.87;3.40;;;-4.80;99.90;;;;;;4981709;28;20622;-86
2024/01/09 05:56:05;;;;;;;8.83;3.80;;;-4.80;99.90;;;;;;4950011;28;20061;-78
2024/01/09 05:58:35;;;;;;;7.30;3.57;;;-4.80;99.90;;;;;;4979407;28;20042;-86
2024/01/09 06:01:01;;;;;;;6.57;3.20;;;-4.80;99.90;;;;;;4962206;28;20946;-81
2024/01/09 06:03:29;;;;;;;8.67;3.83;;;-4.80;99.90;;;;;;4993384;28;20030;-85
2024/01/09 06:05:56;;;;;;;6.30;3.43;;;-4.80;99.90;;;;;;4978307;28;20030;-74
2024/01/09 06:08:23;;;;;;;8.87;3.50;;;-4.90;99.90;;;;;;4962452;28;20035;-82
2024/01/09 06:10:49;;;;;;;7.57;3.67;;;-4.90;99.90;;;;;;4992632;28;20033;-82
2024/01/09 06:13:15;;;;;;;7.47;3.97;;;-4.90;99.90;;;;;;4961919;28;20076;-83
2024/01/09 06:15:42;;;;;;;7.43;3.67;;;-5.00;99.90;;;;;;4978718;28;20541;-83
2024/01/09 06:18:08;;;;;;;7.83;3.87;;;-5.00;99.90;;;;;;4977454;28;20042;-77
2024/01/09 06:20:34;;;;;;;8.33;3.87;;;-5.00;99.90;;;;;;4992225;28;20045;-79
2024/01/09 06:23:01;;;;;;;8.77;4.03;;;-5.00;99.90;;;;;;4979238;28;20050;-77
2024/01/09 06:25:27;;;;;;;11.00;3.57;;;-5.00;99.90;;;;;;4994236;28;20038;-81
2024/01/09 06:27:53;;;;;;;9.50;4.73;;;-5.00;99.90;;;;;;4978599;28;20034;-80
2024/01/09 06:30:20;;;;;;;8.57;4.37;;;-5.10;99.90;;;;;;4977549;28;20027;-81
2024/01/09 06:32:46;;;;;;;9.83;4.83;;;-5.10;99.90;;;;;;4961925;28;20050;-88
2024/01/09 06:35:12;;;;;;;7.60;3.67;;;-5.10;99.90;;;;;;4962736;28;20417;-82
2024/01/09 06:37:39;;;;;;;9.43;3.60;;;-5.10;99.90;;;;;;4945607;28;20034;-84
2024/01/09 06:40:06;;;;;;;8.13;4.20;;;-5.20;99.90;;;;;;4977698;28;20022;-83
2024/01/09 06:42:33;;;;;;;11.27;4.60;;;-5.20;99.90;;;;;;4993774;28;20470;-86
2024/01/09 06:45:00;;;;;;;9.20;3.87;;;-5.20;99.90;;;;;;4994535;28;20046;-86
2024/01/09 06:47:26;;;;;;;11.03;4.47;;;-5.30;99.90;;;;;;4975721;28;20490;-89
2024/01/09 06:49:53;;;;;;;8.33;4.43;;;-5.30;99.90;;;;;;5011570;28;20034;-84
2024/01/09 06:52:19;;;;;;;7.10;3.87;;;-5.30;99.90;;;;;;4961708;28;20050;-87
2024/01/09 06:54:46;;;;;;;10.43;4.10;;;-5.30;99.90;;;;;;4981012;28;20034;-90
2024/01/09 06:57:12;;;;;;;10.63;4.57;;;-5.30;99.90;;;;;;4979592;28;20031;-79
2024/01/09 06:59:45;;;;;;;10.33;4.20;;;-5.30;99.90;;;;;;4981029;28;20031;-74
2024/01/09 07:02:12;;;;;;;7.33;3.90;;;-5.40;99.90;;;;;;4960053;28;20034;-81
2024/01/09 07:04:38;;;;;;;8.33;4.53;;;-5.40;99.90;;;;;;4980957;28;20421;-82
2024/01/09 07:07:05;;;;;;;9.33;4.03;;;-5.40;99.90;;;;;;4995649;28;20033;-82
2024/01/09 07:09:32;;;;;;;8.10;3.83;;;-5.40;99.90;;;;;;5003909;28;20041;-81
2024/01/09 07:11:58;;;;;;;7.23;3.83;;;-5.40;99.90;;;;;;4995692;28;20045;-85
2024/01/09 07:14:25;;;;;;;7.23;4.03;;;-5.40;99.90;;;;;;4994389;28;20043;-86
2024/01/09 07:16:51;;;;;;;9.23;4.57;;;-5.40;99.90;;;;;;4976450;28;20050;-78
2024/01/09 07:19:18;;;;;;;8.80;4.10;;;-5.40;99.90;;;;;;4994455;28;20038;-79
2024/01/09 07:21:44;;;;;;;7.93;3.43;;;-5.40;99.90;;;;;;4977031;28;20034;-75
2024/01/09 07:24:10;;;;;;;7.83;4.23;;;-5.40;99.90;;;;;;4963241;28;20039;-76
2024/01/09 07:26:41;;;;;;;10.40;4.80;;;-5.40;99.90;;;;;;4962857;28;20034;-82
2024/01/09 07:29:07;;;;;;;6.97;3.40;;;-5.40;99.90;;;;;;4991539;28;20500;-85
2024/01/09 07:31:34;;;;;;;10.13;4.47;;;-5.40;99.90;;;;;;4991696;28;20034;-85
2024/01/09 07:34:00;;;;;;;9.60;4.60;;;-5.40;99.90;;;;;;4961152;28;20030;-87
2024/01/09 07:36:27;;;;;;;10.13;4.23;;;-5.40;99.90;;;;;;4975922;28;20039;-83
2024/01/09 07:38:53;;;;;;;8.67;3.83;;;-5.40;99.90;;;;;;4943911;28;20042;-81
2024/01/09 07:41:19;;;;;;;8.80;3.77;;;-5.40;99.90;;;;;;4977082;28;20041;-87
2024/01/09 07:43:46;;;;;;;7.57;3.70;;;-5.40;99.90;;;;;;4976086;28;20034;-90
2024/01/09 07:46:12;;;;;;;8.83;3.67;;;-5.40;99.90;;;;;;4977659;28;20066;-75
2024/01/09 07:48:39;;;;;;;8.37;4.17;;;-5.40;99.90;;;;;;4978381;28;20037;-85
2024/01/09 07:51:05;;;;;;;8.00;4.20;;;-5.30;99.90;;;;;;4980709;28;20030;-83
2024/01/09 07:53:32;;;;;;;7.53;3.53;;;-5.30;99.90;;;;;;5010046;28;20019;-86
2024/01/09 07:55:58;;;;;;;9.63;4.33;;;-5.30;99.90;;;;;;4965011;28;20038;-83
2024/01/09 07:58:25;;;;;;;6.90;3.67;;;-5.20;99.90;;;;;;4997490;28;20049;-80
2024/01/09 08:00:51;;;;;;;7.80;3.60;;;-5.20;99.90;;;;;;4984891;28;20366;-80
2024/01/09 08:03:18;;;;;;;8.23;4.00;;;-5.20;99.90;;;;;;4982883;28;20041;-85
2024/01/09 08:05:44;;;;;;;7.50;3.37;;;-5.10;99.90;;;;;;5014638;28;20389;-86
2024/01/09 08:08:11;;;;;;;7.40;4.10;;;-5.10;99.90;;;;;;4997606;28;20034;-87
2024/01/09 08:10:37;;;;;;;7.57;4.10;;;-5.10;99.90;;;;;;4982209;28;20365;-89
2024/01/09 08:13:04;;;;;;;7.57;3.33;;;-5.10;99.90;;;;;;4980814;28;20037;-81
2024/01/09 08:15:30;;;;;;;6.37;3.13;;;-5.00;99.90;;;;;;4981492;28;20069;-85
2024/01/09 08:17:56;;;;;;;8.53;3.30;;;-5.00;99.90;;;;;;4965889;28;20049;-83
2024/01/09 08:20:23;;;;;;;6.73;3.83;;;-4.90;99.90;;;;;;4983022;28;20026;-81
2024/01/09 08:22:49;;;;;;;6.20;3.47;;;-4.90;99.90;;;;;;4981986;28;20938;-87
2024/01/09 08:25:15;;;;;;;8.77;3.53;;;-4.80;99.90;;;;;;4997659;28;20058;-85
2024/01/09 08:27:42;;;;;;;7.50;3.80;;;-4.80;99.90;;;;;;4997277;28;20046;-82
2024/01/09 08:30:10;;;;;;;7.20;3.17;;;-4.80;99.90;;;;;;4964867;28;20045;-86
2024/01/09 08:32:38;;;;;;;8.50;2.80;;;-4.70;99.90;;;;;;5011767;28;20037;-82
2024/01/09 08:35:05;;;;;;;8.77;3.47;;;-4.60;99.90;;;;;;4981360;28;20022;-83
2024/01/09 08:37:31;;;;;;;8.37;3.53;;;-4.60;99.90;;;;;;4963346;28;20057;-80
2024/01/09 08:39:57;;;;;;;6.93;2.73;;;-4.50;99.90;;;;;;4946022;28;20425;-82
2024/01/09 08:42:24;;;;;;;7.13;3.47;;;-4.50;99.90;;;;;;4962714;28;20042;-81
2024/01/09 08:44:50;;;;;;;6.93;2.97;;;-4.40;99.90;;;;;;4980399;28;20038;-86
2024/01/09 08:47:17;;;;;;;4.50;2.63;;;-4.30;99.90;;;;;;4980476;28;20041;-87
2024/01/09 08:49:46;;;;;;;7.50;3.40;;;-4.30;99.90;;;;;;4980449;28;20022;-79
2024/01/09 08:52:12;;;;;;;5.83;2.87;;;-4.20;99.90;;;;;;4980202;28;20045;-86
2024/01/09 08:54:39;;;;;;;6.57;2.97;;;-4.20;99.90;;;;;;4947394;28;20053;-74
2024/01/09 08:57:07;;;;;;;6.57;3.00;;;-4.20;99.90;;;;;;4980227;28;20607;-84
2024/01/09 08:59:34;;;;;;;4.90;2.57;;;-4.10;99.90;;;;;;4979007;28;20038;-81
2024/01/09 09:02:00;;;;;;;5.60;2.83;;;-4.00;99.90;;;;;;4946217;28;20049;-76
2024/01/09 09:04:27;;;;;;;5.40;2.47;;;-4.00;99.90;;;;;;4981682;28;20045;-84
2024/01/09 09:06:53;;;;;;;6.57;2.33;;;-3.90;99.90;;;;;;4978743;28;20281;-83
2024/01/09 09:09:20;;;;;;;5.77;2.60;;;-3.90;99.90;;;;;;4993302;28;20031;-84
2024/01/09 09:11:46;;;;;;;5.63;2.97;;;-3.80;99.90;;;;;;4995700;28;20053;-83
2024/01/09 09:14:12;;;;;;;5.27;2.40;;;-3.70;99.90;;;;;;4964259;28;20030;-83
2024/01/09 09:16:39;;;;;;;6.13;2.43;;;-3.70;99.90;;;;;;4962518;28;20593;-84
2024/01/09 09:19:07;;;;;;;7.10;3.00;;;-3.70;99.90;;;;;;4963451;28;20034;-83
2024/01/09 09:21:33;;;;;;;5.47;2.27;;;-3.60;99.90;;;;;;4980267;28;20046;-74
2024/01/09 09:24:00;;;;;;;7.00;3.00;;;-3.60;99.90;;;;;;5013623;28;21080;-86
2024/01/09 09:26:27;;;;;;;6.63;3.07;;;-3.50;99.90;;;;;;5014481;28;20065;-76
2024/01/09 09:28:54;;;;;;;5.90;2.97;;;-3.50;99.90;;;;;;4980508;28;20084;-77
2024/01/09 09:31:21;;;;;;;6.13;2.70;;;-3.60;99.90;;;;;;4964957;28;20038;-86
2024/01/09 09:33:47;;;;;;;6.90;3.00;;;-3.60;99.90;;;;;;5012166;28;20045;-85
2024/01/09 09:36:14;;;;;;;9.53;3.30;;;-3.60;99.90;;;;;;4963789;28;20049;-80
2024/01/09 09:38:40;;;;;;;7.37;3.43;;;-3.70;99.90;;;;;;4979691;28;20713;-89
2024/01/09 09:41:13;;;;;;;10.07;3.57;;;-3.60;99.90;;;;;;4963939;28;20041;-83
2024/01/09 09:43:43;;;;;;;7.50;3.00;;;-3.60;99.90;;;;;;4966830;28;20034;-83
2024/01/09 09:46:12;;;;;;;5.90;2.90;;;-3.60;99.90;;;;;;4980849;28;20409;-86
2024/01/09 09:48:39;;;;;;;6.70;3.17;;;-3.60;99.90;;;;;;5012364;28;20030;-86
2024/01/09 09:51:07;;;;;;;6.03;3.43;;;-3.50;99.90;;;;;;4982415;28;20049;-81
2024/01/09 09:53:33;;;;;;;6.63;2.90;;;-3.50;99.90;;;;;;4981771;28;20043;-84
2024/01/09 09:55:59;;;;;;;7.33;2.77;;;-3.40;99.90;;;;;;4981581;28;20042;-85
2024/01/09 09:58:25;;;;;;;7.00;3.43;;;-3.30;99.90;;;;;;4981191;28;20023;-81
2024/01/09 10:00:56;;;;;;;6.30;3.10;;;-3.20;99.90;;;;;;4981857;28;20405;-78
2024/01/09 10:03:30;;;;;;;6.57;2.43;;;-3.00;99.90;;;;;;4982459;28;20045;-87
2024/01/09 10:05:59;;;;;;;4.80;1.80;;;-2.80;99.90;;;;;;4978791;28;20042;-87
2024/01/09 10:08:26;;;;;;;7.40;3.00;;;-2.60;99.90;;;;;;4978996;28;20038;-74
2024/01/09 10:10:54;;;;;;;5.30;2.63;;;-2.30;99.90;;;;;;4965229;28;20038;-86
2024/01/09 10:13:22;;;;;;;6.23;2.67;;;-2.10;99.90;;;;;;5010671;28;20053;-83
2024/01/09 10:16:02;;;;;;;5.43;2.20;;;-1.80;99.90;;;;;;4982796;28;20046;-84
2024/01/09 10:18:30;;;;;;;7.00;3.40;;;-1.50;99.90;;;;;;4994967;28;20030;-81
2024/01/09 10:21:00;;;;;;;5.63;2.50;;;-1.10;99.90;;;;;;4978858;28;20037;-87
2024/01/09 10:23:28;;;;;;;5.73;2.83;;;-0.70;99.90;;;;;;4980529;28;20033;-83
2024/01/09 10:25:57;;;;;;;5.30;2.73;;;-0.50;99.90;;;;;;4979271;28;20049;-83
2024/01/09 10:28:23;;;;;;;5.77;2.70;;;-0.40;99.90;;;;;;4994069;28;20030;-80
2024/01/09 10:30:52;;;;;;;5.00;2.60;;;-0.50;99.90;;;;;;4979999;28;20035;-86
2024/01/09 10:33:19;;;;;;;5.10;2.67;;;-0.70;99.90;;;;;;4965289;28;20048;-74
2024/01/09 10:35:45;;;;;;;6.83;2.73;;;-0.70;99.90;;;;;;4995445;28;20365;-84
2024/01/09 10:38:12;;;;;;;6.83;3.00;;;-0.90;99.90;;;;;;4982289;28;20042;-87
2024/01/09 10:40:38;;;;;;;5.43;2.47;;;-1.10;99.90;;;;;;4980192;28;20029;-87
2024/01/09 10:43:04;;;;;;;5.03;2.57;;;-1.30;99.90;;;;;;4947615;28;20030;-84
2024/01/09 10:45:31;;;;;;;6.20;2.70;;;-1.50;99.90;;;;;;4979464;28;20034;-82
2024/01/09 10:47:58;;;;;;;6.37;2.40;;;-1.60;99.90;;;;;;4979037;28;20038;-85
2024/01/09 10:50:25;;;;;;;5.00;2.37;;;-1.70;99.90;;;;;;4978373;28;20030;-86
2024/01/09 10:52:52;;;;;;;5.13;2.50;;;-1.80;99.90;;;;;;4979874;28;20397;-74
2024/01/09 10:55:22;;;;;;;6.13;2.30;;;-1.90;99.90;;;;;;4978724;28;20352;-80
2024/01/09 10:57:49;;;;;;;8.40;6.30;;;-2.00;99.90;;;;;;4979937;28;20042;-79
2024/01/09 11:00:16;;;;;;;5.30;2.80;;;-2.00;99.90;;;;;;4994306;28;20049;-82
2024/01/09 11:02:42;;;;;;;4.10;1.93;;;-2.10;99.90;;;;;;4980882;28;20030;-79
2024/01/09 11:05:13;;;;;;;5.90;2.30;;;-2.10;99.90;;;;;;4963200;28;20045;-75
2024/01/09 11:07:45;;;;;;;5.33;2.03;;;-2.10;99.90;;;;;;4978968;28;20045;-82
2024/01/09 11:10:19;;;;;;;4.57;1.92;;;-2.10;99.90;;;;;;4960699;28;20477;-85
2024/01/09 11:12:50;;;;;;;6.37;2.43;;;-2.10;99.90;;;;;;4960980;28;20053;-73
2024/01/09 11:15:35;;;;;;;4.23;2.10;;;-2.10;99.90;;;;;;4975682;28;20039;-83
2024/01/09 11:18:07;;;;;;;5.20;1.93;;;-2.00;99.90;;;;;;4992886;28;20053;-82
2024/01/09 11:20:33;;;;;;;5.25;2.20;;;-2.00;99.90;;;;;;4975291;28;20034;-84
2024/01/09 11:23:00;;;;;;;5.37;2.17;;;-2.00;99.90;;;;;;4978345;28;20034;-74
2024/01/09 11:25:31;;;;;;;4.93;2.20;;;-2.00;99.90;;;;;;5012902;28;20038;-79
2024/01/09 11:28:00;;;;;;;5.07;2.43;;;-2.00;99.90;;;;;;4992183;28;20049;-81
2024/01/09 11:30:27;;;;;;;5.60;2.30;;;-1.90;99.90;;;;;;5009001;28;20624;-79
2024/01/09 11:33:17;;;;;;;3.47;1.60;;;-1.90;99.90;;;;;;4980500;28;20057;-76
2024/01/09 11:35:44;;;;;;;4.43;2.00;;;-1.80;99.90;;;;;;4984213;28;22281;-80
2024/01/09 11:38:11;;;;;;;4.43;2.10;;;-1.80;99.90;;;;;;4990022;28;20043;-80
2024/01/09 11:40:37;;;;;;;5.10;2.13;;;-1.70;99.90;;;;;;4988053;28;20034;-81
2024/01/09 11:43:03;;;;;;;3.53;1.60;;;-1.70;99.90;;;;;;4968840;28;20034;-75
2024/01/09 11:45:30;;;;;;;4.27;2.30;;;-1.60;99.90;;;;;;4981495;28;20768;-82
2024/01/09 11:47:57;;;;;;;5.57;2.10;;;-1.60;99.90;;;;;;4979328;28;20045;-79
2024/01/09 11:50:23;;;;;;;4.60;2.03;;;-1.50;99.90;;;;;;4963369;28;20042;-78
2024/01/09 11:52:50;;;;;;;5.30;2.20;;;-1.50;99.90;;;;;;4961375;28;20111;-73
2024/01/09 11:55:18;;;;;;;3.43;1.80;;;-1.50;99.90;;;;;;4976737;28;20031;-81
2024/01/09 11:57:45;;;;;;;3.47;1.40;;;-1.40;99.90;;;;;;4975835;28;20508;-80
2024/01/09 12:00:11;;;;;;;5.00;2.07;;;-1.40;99.90;;;;;;4977334;28;20042;-81
2024/01/09 12:02:38;;;;;;;5.40;1.90;;;-1.30;99.90;;;;;;4961280;28;20041;-77
2024/01/09 12:05:08;;;;;;;6.03;2.13;;;-1.30;99.90;;;;;;4992156;28;20031;-79
2024/01/09 12:07:37;;;;;;;3.70;1.73;;;-1.30;99.90;;;;;;4961105;28;20149;-80
2024/01/09 12:10:05;;;;;;;3.77;2.10;;;-1.30;99.90;;;;;;4958480;28;20045;-80
2024/01/09 12:12:32;;;;;;;4.37;1.80;;;-1.20;99.90;;;;;;4994345;28;20034;-80
2024/01/09 12:14:59;;;;;;;5.10;2.20;;;-1.20;99.90;;;;;;4959522;28;20030;-79
2024/01/09 12:17:33;;;;;;;5.13;1.87;;;-1.20;99.90;;;;;;4977745;28;20045;-73
2024/01/09 12:20:00;;;;;;;3.67;1.23;;;-1.10;99.90;;;;;;4991745;28;20030;-80
2024/01/09 12:22:27;;;;;;;3.33;1.57;;;-1.10;99.90;;;;;;4960460;28;20478;-79
2024/01/09 12:24:54;;;;;;;6.13;1.77;;;-1.00;99.90;;;;;;4977709;28;20030;-75
2024/01/09 12:27:23;;;;;;;3.17;1.43;;;-1.00;99.90;;;;;;4960435;28;20046;-75
2024/01/09 12:29:53;;;;;;;3.80;1.70;;;-1.00;99.90;;;;;;4990686;28;20042;-77
2024/01/09 12:32:22;;;;;;;4.17;1.83;;;-1.00;99.90;;;;;;4977199;28;20030;-78
2024/01/09 12:34:49;;;;;;;4.50;2.20;;;-1.00;99.90;;;;;;4960956;28;20034;-79
2024/01/09 12:37:16;;;;;;;3.63;1.80;;;-0.90;99.90;;;;;;4976221;28;20397;-80
2024/01/09 12:39:42;;;;;;;4.87;2.03;;;-0.90;99.90;;;;;;5007661;28;20034;-77
2024/01/09 12:42:16;;;;;;;3.17;1.43;;;-0.80;99.90;;;;;;4962103;28;20421;-79
2024/01/09 12:44:43;;;;;;;2.97;1.20;;;-0.80;99.90;;;;;;4997901;28;20042;-80